Shinsei Maru — JD2188 — position and weather

sailwx.info

Track history (hours):
 
Tides and Currents Weather Stations Pressure Air Temp Water Temp Dewpoint Dewpoint Depression Visibility Wind Speed Wind Dir Waves Ship Positions

Shinsei Maru

Last reported at 2015-Aug-03 16:33 UTC. Time now 2015-Aug-03 17:14 UTC.
Position N 35°24' E 139°45'.

Length 104 m; draft 6.5 m.

Type: Tanker. MMSI: 431301775.

Date/timePositionNaut miles runAvg speedWind from/ knotsBaromVisibWave heightAir tempDewpointWater temp
2015-Aug-03 16:33N 35°24' E 139°45'0 0.0
2015-Aug-03 15:33N 35°24' E 139°45'0 0.0
2015-Aug-03 14:33N 35°24' E 139°45'0 0.0
2015-Aug-03 13:33N 35°24' E 139°45'0 0.1
2015-Aug-03 12:33N 35°24' E 139°45'0 0.0
2015-Aug-03 11:33N 35°24' E 139°45'0 0.1
2015-Aug-03 10:33N 35°24' E 139°45'0 0.1
2015-Aug-03 09:33N 35°24' E 139°45'0 0.0
2015-Aug-03 08:33N 35°24' E 139°45'0 0.2
2015-Aug-03 07:34N 35°23' E 139°45'1211.7
2015-Aug-03 06:33N 35°12' E 139°47'1313.0
2015-Aug-03 05:34N 35°01' E 139°38'1816.0
2015-Aug-03 04:28N 34°50' E 139°22'22212.1
2015-Aug-02 10:09N 33°58' E 134°60'712.3
2015-Aug-02 09:32N 34°05' E 134°59'2611.9
2015-Aug-02 07:21N 34°28' E 135°13'1 0.0
2015-Jul-31 21:20N 34°28' E 135°14'2212.4
2015-Jul-31 19:33N 34°10' E 134°60'22111.0
2015-Jul-30 23:33N 34°53' E 139°23'1313.0
2015-Jul-30 22:33N 35°01' E 139°34'1413.8
2015-Jul-30 21:33N 35°12' E 139°45'1212.4
2015-Jul-30 20:34N 35°24' E 139°43'1413.7
2015-Jul-30 19:33N 35°31' E 139°57'5 4.3
2015-Jul-30 18:29N 35°31' E 140°02'0 0.0
2015-Jul-30 17:29N 35°31' E 140°02'0 0.0
2015-Jul-30 16:29N 35°31' E 140°03'0 0.0
2015-Jul-30 15:29N 35°31' E 140°03'0 0.0
2015-Jul-30 14:29N 35°31' E 140°02'0 0.1
2015-Jul-30 13:32N 35°31' E 140°03'0 0.0
2015-Jul-30 12:29N 35°31' E 140°03'0 0.0
2015-Jul-30 11:32N 35°31' E 140°03'0 0.0
2015-Jul-30 10:29N 35°31' E 140°02'0 0.0
2015-Jul-30 09:29N 35°31' E 140°03'0 0.4
2015-Jul-30 08:33N 35°31' E 140°02'1 0.9
2015-Jul-30 07:33N 35°32' E 140°02'0 0.0
2015-Jul-30 06:33N 35°32' E 140°02'0 0.0
2015-Jul-30 05:33N 35°32' E 140°02'0 0.1
2015-Jul-30 04:33N 35°32' E 140°02'0 0.0
2015-Jul-30 03:27N 35°32' E 140°02'0 0.0
2015-Jul-30 02:33N 35°32' E 140°02'0 0.0
2015-Jul-30 01:33N 35°32' E 140°02'0 0.0
2015-Jul-30 00:33N 35°32' E 140°02'0 0.0
2015-Jul-29 23:33N 35°32' E 140°02'0 0.0
2015-Jul-29 22:27N 35°32' E 140°02'0 0.2
2015-Jul-29 21:33N 35°31' E 140°02'1010.3
2015-Jul-29 20:33N 35°30' E 139°49'2 2.0
2015-Jul-29 19:31N 35°31' E 139°47'0 0.0
2015-Jul-29 18:31N 35°31' E 139°46'0 0.0
2015-Jul-29 17:31N 35°31' E 139°46'0 0.0
2015-Jul-29 16:31N 35°31' E 139°47'0 0.0
2015-Jul-29 15:31N 35°31' E 139°46'0 0.0
2015-Jul-29 14:31N 35°31' E 139°46'0 0.0
2015-Jul-29 13:31N 35°31' E 139°46'0 0.0
2015-Jul-29 12:31N 35°31' E 139°47'0 0.0
2015-Jul-29 11:28N 35°31' E 139°46'0 0.0
2015-Jul-29 10:31N 35°31' E 139°46'0 0.0
2015-Jul-29 09:31N 35°31' E 139°46'0 0.0
2015-Jul-29 08:31N 35°31' E 139°46'0 0.0
2015-Jul-29 07:25N 35°31' E 139°47'0 0.1
2015-Jul-29 06:28N 35°31' E 139°46'1 0.9
2015-Jul-29 05:31N 35°30' E 139°45'0 0.0
2015-Jul-29 04:28N 35°30' E 139°45'0 0.0
2015-Jul-29 03:31N 35°30' E 139°45'0 0.0
2015-Jul-29 02:31N 35°30' E 139°45'0 0.0
2015-Jul-29 01:31N 35°30' E 139°45'0 0.0
2015-Jul-29 00:31N 35°30' E 139°45'0 0.0
2015-Jul-28 23:31N 35°30' E 139°45'0 0.0
2015-Jul-28 22:28N 35°30' E 139°45'0 0.0
2015-Jul-28 21:31N 35°30' E 139°45'0 0.0
2015-Jul-28 20:31N 35°30' E 139°45'0 0.0
2015-Jul-28 19:28N 35°30' E 139°45'0 0.0
2015-Jul-28 18:31N 35°30' E 139°45'0 0.0
2015-Jul-28 17:31N 35°30' E 139°45'0 0.0
2015-Jul-28 16:31N 35°30' E 139°45'0 0.0
2015-Jul-28 15:31N 35°30' E 139°45'0 0.0
2015-Jul-28 14:31N 35°30' E 139°45'0 0.0
2015-Jul-28 13:31N 35°30' E 139°45'0 0.0
2015-Jul-28 12:31N 35°30' E 139°45'0 0.0
2015-Jul-28 11:31N 35°30' E 139°45'0 0.0
2015-Jul-28 10:31N 35°30' E 139°45'0 0.0
2015-Jul-28 09:31N 35°30' E 139°45'0 0.0
2015-Jul-28 08:31N 35°30' E 139°45'0 0.0
2015-Jul-28 07:31N 35°30' E 139°45'0 0.0
2015-Jul-28 06:31N 35°30' E 139°45'0 0.0
2015-Jul-28 05:28N 35°30' E 139°45'0 0.0
2015-Jul-28 04:31N 35°30' E 139°45'0 0.0
2015-Jul-28 03:31N 35°30' E 139°45'0 0.0
2015-Jul-28 02:31N 35°30' E 139°45'0 0.0
2015-Jul-28 01:28N 35°30' E 139°45'0 0.0
2015-Jul-28 00:28N 35°30' E 139°45'0 0.5
2015-Jul-27 23:34N 35°30' E 139°45'6 6.2
2015-Jul-27 22:31N 35°24' E 139°44'0 0.1
2015-Jul-27 21:31N 35°24' E 139°44'0 0.0
2015-Jul-27 20:31N 35°24' E 139°44'4 4.0
2015-Jul-27 19:33N 35°20' E 139°43'1212.2
2015-Jul-27 18:33N 35°08' E 139°46'1514.2
2015-Jul-27 17:31N 34°57' E 139°33'1515.7
2015-Jul-27 16:32N 34°48' E 139°19'21712.1
2015-Jul-26 22:33N 34°02' E 135°02'7 0.7
2015-Jul-26 13:10N 34°07' E 135°07'1 0.7
2015-Jul-26 12:12N 34°08' E 135°07'0 0.0
2015-Jul-26 11:33N 34°08' E 135°07'0 0.0
2015-Jul-26 09:33N 34°08' E 135°07'0 0.0
2015-Jul-26 08:06N 34°08' E 135°07'0 0.0
2015-Jul-26 07:33N 34°08' E 135°07'0 0.0
2015-Jul-26 06:33N 34°08' E 135°07'0 0.0
2015-Jul-26 05:33N 34°08' E 135°07'0 0.0
2015-Jul-26 04:33N 34°08' E 135°07'0 0.0
2015-Jul-26 03:33N 34°08' E 135°07'0 0.0
2015-Jul-26 02:33N 34°08' E 135°07'0 0.0
2015-Jul-26 01:33N 34°08' E 135°07'0 0.0
2015-Jul-25 19:15N 34°08' E 135°07'0 0.0
2015-Jul-25 18:33N 34°08' E 135°07'0 0.0
2015-Jul-25 17:30N 34°08' E 135°07'0 0.0
2015-Jul-25 16:30N 34°08' E 135°07'0 0.0
2015-Jul-25 15:27N 34°08' E 135°07'0 0.2
2015-Jul-25 14:33N 34°08' E 135°07'154 9.6
2015-Jul-24 22:30N 34°17' E 138°13'  
Track history (hours):
 
Tides and Currents Weather Stations Pressure Air Temp Water Temp Dewpoint Dewpoint Depression Visibility Wind Speed Wind Dir Waves Ship Positions

Shinsei Maru

Last reported at 2015-Aug-03 16:33 UTC. Time now 2015-Aug-03 17:14 UTC.
Position N 35°24' E 139°45'.

Length 104 m; draft 6.5 m.

Type: Tanker. MMSI: 431301775.

Date/timePositionNaut miles runAvg speedWind from/ knotsBaromVisibWave heightAir tempDewpointWater temp
2015-Aug-03 16:33N 35°24' E 139°45'0 0.0
2015-Aug-03 15:33N 35°24' E 139°45'0 0.0
2015-Aug-03 14:33N 35°24' E 139°45'0 0.0
2015-Aug-03 13:33N 35°24' E 139°45'0 0.1
2015-Aug-03 12:33N 35°24' E 139°45'0 0.0
2015-Aug-03 11:33N 35°24' E 139°45'0 0.1
2015-Aug-03 10:33N 35°24' E 139°45'0 0.1
2015-Aug-03 09:33N 35°24' E 139°45'0 0.0
2015-Aug-03 08:33N 35°24' E 139°45'0 0.2
2015-Aug-03 07:34N 35°23' E 139°45'1211.7
2015-Aug-03 06:33N 35°12' E 139°47'1313.0
2015-Aug-03 05:34N 35°01' E 139°38'1816.0
2015-Aug-03 04:28N 34°50' E 139°22'22212.1
2015-Aug-02 10:09N 33°58' E 134°60'712.3
2015-Aug-02 09:32N 34°05' E 134°59'2611.9
2015-Aug-02 07:21N 34°28' E 135°13'1 0.0
2015-Jul-31 21:20N 34°28' E 135°14'2212.4
2015-Jul-31 19:33N 34°10' E 134°60'22111.0
2015-Jul-30 23:33N 34°53' E 139°23'1313.0
2015-Jul-30 22:33N 35°01' E 139°34'1413.8
2015-Jul-30 21:33N 35°12' E 139°45'1212.4
2015-Jul-30 20:34N 35°24' E 139°43'1413.7
2015-Jul-30 19:33N 35°31' E 139°57'5 4.3
2015-Jul-30 18:29N 35°31' E 140°02'0 0.0
2015-Jul-30 17:29N 35°31' E 140°02'0 0.0
2015-Jul-30 16:29N 35°31' E 140°03'0 0.0
2015-Jul-30 15:29N 35°31' E 140°03'0 0.0
2015-Jul-30 14:29N 35°31' E 140°02'0 0.1
2015-Jul-30 13:32N 35°31' E 140°03'0 0.0
2015-Jul-30 12:29N 35°31' E 140°03'0 0.0
2015-Jul-30 11:32N 35°31' E 140°03'0 0.0
2015-Jul-30 10:29N 35°31' E 140°02'0 0.0
2015-Jul-30 09:29N 35°31' E 140°03'0 0.4
2015-Jul-30 08:33N 35°31' E 140°02'1 0.9
2015-Jul-30 07:33N 35°32' E 140°02'0 0.0
2015-Jul-30 06:33N 35°32' E 140°02'0 0.0
2015-Jul-30 05:33N 35°32' E 140°02'0 0.1
2015-Jul-30 04:33N 35°32' E 140°02'0 0.0
2015-Jul-30 03:27N 35°32' E 140°02'0 0.0
2015-Jul-30 02:33N 35°32' E 140°02'0 0.0
2015-Jul-30 01:33N 35°32' E 140°02'0 0.0
2015-Jul-30 00:33N 35°32' E 140°02'0 0.0
2015-Jul-29 23:33N 35°32' E 140°02'0 0.0
2015-Jul-29 22:27N 35°32' E 140°02'0 0.2
2015-Jul-29 21:33N 35°31' E 140°02'1010.3
2015-Jul-29 20:33N 35°30' E 139°49'2 2.0
2015-Jul-29 19:31N 35°31' E 139°47'0 0.0
2015-Jul-29 18:31N 35°31' E 139°46'0 0.0
2015-Jul-29 17:31N 35°31' E 139°46'0 0.0
2015-Jul-29 16:31N 35°31' E 139°47'0 0.0
2015-Jul-29 15:31N 35°31' E 139°46'0 0.0
2015-Jul-29 14:31N 35°31' E 139°46'0 0.0
2015-Jul-29 13:31N 35°31' E 139°46'0 0.0
2015-Jul-29 12:31N 35°31' E 139°47'0 0.0
2015-Jul-29 11:28N 35°31' E 139°46'0 0.0
2015-Jul-29 10:31N 35°31' E 139°46'0 0.0
2015-Jul-29 09:31N 35°31' E 139°46'0 0.0
2015-Jul-29 08:31N 35°31' E 139°46'0 0.0
2015-Jul-29 07:25N 35°31' E 139°47'0 0.1
2015-Jul-29 06:28N 35°31' E 139°46'1 0.9
2015-Jul-29 05:31N 35°30' E 139°45'0 0.0
2015-Jul-29 04:28N 35°30' E 139°45'0 0.0
2015-Jul-29 03:31N 35°30' E 139°45'0 0.0
2015-Jul-29 02:31N 35°30' E 139°45'0 0.0
2015-Jul-29 01:31N 35°30' E 139°45'0 0.0
2015-Jul-29 00:31N 35°30' E 139°45'0 0.0
2015-Jul-28 23:31N 35°30' E 139°45'0 0.0
2015-Jul-28 22:28N 35°30' E 139°45'0 0.0
2015-Jul-28 21:31N 35°30' E 139°45'0 0.0
2015-Jul-28 20:31N 35°30' E 139°45'0 0.0
2015-Jul-28 19:28N 35°30' E 139°45'0 0.0
2015-Jul-28 18:31N 35°30' E 139°45'0 0.0
2015-Jul-28 17:31N 35°30' E 139°45'0 0.0
2015-Jul-28 16:31N 35°30' E 139°45'0 0.0
2015-Jul-28 15:31N 35°30' E 139°45'0 0.0
2015-Jul-28 14:31N 35°30' E 139°45'0 0.0
2015-Jul-28 13:31N 35°30' E 139°45'0 0.0
2015-Jul-28 12:31N 35°30' E 139°45'0 0.0
2015-Jul-28 11:31N 35°30' E 139°45'0 0.0
2015-Jul-28 10:31N 35°30' E 139°45'0 0.0
2015-Jul-28 09:31N 35°30' E 139°45'0 0.0
2015-Jul-28 08:31N 35°30' E 139°45'0 0.0
2015-Jul-28 07:31N 35°30' E 139°45'0 0.0
2015-Jul-28 06:31N 35°30' E 139°45'0 0.0
2015-Jul-28 05:28N 35°30' E 139°45'0 0.0
2015-Jul-28 04:31N 35°30' E 139°45'0 0.0
2015-Jul-28 03:31N 35°30' E 139°45'0 0.0
2015-Jul-28 02:31N 35°30' E 139°45'0 0.0
2015-Jul-28 01:28N 35°30' E 139°45'0 0.0
2015-Jul-28 00:28N 35°30' E 139°45'0 0.5
2015-Jul-27 23:34N 35°30' E 139°45'6 6.2
2015-Jul-27 22:31N 35°24' E 139°44'0 0.1
2015-Jul-27 21:31N 35°24' E 139°44'0 0.0
2015-Jul-27 20:31N 35°24' E 139°44'4 4.0
2015-Jul-27 19:33N 35°20' E 139°43'1212.2
2015-Jul-27 18:33N 35°08' E 139°46'1514.2
2015-Jul-27 17:31N 34°57' E 139°33'1515.7
2015-Jul-27 16:32N 34°48' E 139°19'21712.1
2015-Jul-26 22:33N 34°02' E 135°02'7 0.7
2015-Jul-26 13:10N 34°07' E 135°07'1 0.7
2015-Jul-26 12:12N 34°08' E 135°07'0 0.0
2015-Jul-26 11:33N 34°08' E 135°07'0 0.0
2015-Jul-26 09:33N 34°08' E 135°07'0 0.0
2015-Jul-26 08:06N 34°08' E 135°07'0 0.0
2015-Jul-26 07:33N 34°08' E 135°07'0 0.0
2015-Jul-26 06:33N 34°08' E 135°07'0 0.0
2015-Jul-26 05:33N 34°08' E 135°07'0 0.0
2015-Jul-26 04:33N 34°08' E 135°07'0 0.0
2015-Jul-26 03:33N 34°08' E 135°07'0 0.0
2015-Jul-26 02:33N 34°08' E 135°07'0 0.0
2015-Jul-26 01:33N 34°08' E 135°07'0 0.0
2015-Jul-25 19:15N 34°08' E 135°07'0 0.0
2015-Jul-25 18:33N 34°08' E 135°07'0 0.0
2015-Jul-25 17:30N 34°08' E 135°07'0 0.0
2015-Jul-25 16:30N 34°08' E 135°07'0 0.0
2015-Jul-25 15:27N 34°08' E 135°07'0 0.2
2015-Jul-25 14:33N 34°08' E 135°07'154 9.6
2015-Jul-24 22:30N 34°17' E 138°13'  

Dump ship's entire track history